SIA26 KLAX-KSEA
Flight info
| Callsign | SIA26 |
|---|---|
| Flight time | 2h 13m |
| Altitude | 38000 |
| Route | LADYJ4 CSTRO SHIMR LKV HAWKZ8 |
| Aircraft | B77W/H-SDE1E2E3FGHIJ2J3J4J5M1RWXY/LB1D1 |
Departure
| Time | 2026-05-06 23:05 |
|---|---|
| Airport | Los Angeles International Airport (KLAX) |
Arrival
| Time | 2026-05-07 01:19 |
|---|---|
| Airport | Seattle–Tacoma International Airport (KSEA) |
| Time | Latitude | Longitude | Altitude | Speed | Heading |
|---|---|---|---|---|---|
| 2026-05-06 22:34 | 33.94099 | -118.41095 | 130 ft | 0 kts | 83° |
| 2026-05-06 22:55 | 33.94098 | -118.41103 | 130 ft | 2 kts | 79° |
| 2026-05-06 22:55 | 33.94093 | -118.41122 | 125 ft | 2 kts | 61° |
| 2026-05-06 22:55 | 33.94081 | -118.41141 | 125 ft | 3 kts | 38° |
| 2026-05-06 22:55 | 33.94063 | -118.41153 | 125 ft | 3 kts | 31° |
| 2026-05-06 22:56 | 33.94050 | -118.41169 | 125 ft | 3 kts | 62° |
| 2026-05-06 22:56 | 33.94041 | -118.41184 | 125 ft | 2 kts | 20° |
| 2026-05-06 22:56 | 33.94033 | -118.41187 | 125 ft | 0 kts | 353° |
| 2026-05-06 22:59 | 33.94037 | -118.41187 | 125 ft | 4 kts | 352° |
| 2026-05-06 23:00 | 33.94093 | -118.41196 | 128 ft | 11 kts | 353° |
| 2026-05-06 23:00 | 33.94202 | -118.41213 | 128 ft | 21 kts | 352° |
| 2026-05-06 23:00 | 33.94350 | -118.41233 | 128 ft | 20 kts | 354° |
| 2026-05-06 23:00 | 33.94483 | -118.41254 | 128 ft | 18 kts | 352° |
| 2026-05-06 23:01 | 33.94608 | -118.41273 | 128 ft | 17 kts | 353° |
| 2026-05-06 23:01 | 33.94710 | -118.41288 | 128 ft | 14 kts | 353° |
| 2026-05-06 23:01 | 33.94770 | -118.41292 | 128 ft | 4 kts | 17° |
| 2026-05-06 23:01 | 33.94789 | -118.41268 | 125 ft | 4 kts | 59° |
| 2026-05-06 23:02 | 33.94801 | -118.41212 | 127 ft | 12 kts | 79° |
| 2026-05-06 23:02 | 33.94815 | -118.41090 | 128 ft | 15 kts | 82° |
| 2026-05-06 23:02 | 33.94828 | -118.40963 | 127 ft | 15 kts | 83° |
| 2026-05-06 23:02 | 33.94841 | -118.40836 | 130 ft | 15 kts | 83° |
| 2026-05-06 23:03 | 33.94856 | -118.40684 | 130 ft | 25 kts | 83° |
| 2026-05-06 23:03 | 33.94879 | -118.40469 | 126 ft | 25 kts | 82° |
| 2026-05-06 23:03 | 33.94898 | -118.40285 | 127 ft | 16 kts | 83° |
| 2026-05-06 23:03 | 33.94911 | -118.40151 | 129 ft | 16 kts | 83° |
| 2026-05-06 23:04 | 33.94924 | -118.40016 | 130 ft | 16 kts | 83° |
| 2026-05-06 23:04 | 33.94973 | -118.39921 | 125 ft | 10 kts | 14° |
| 2026-05-06 23:04 | 33.95015 | -118.39924 | 126 ft | 6 kts | 353° |
| 2026-05-06 23:04 | 33.95037 | -118.39974 | 126 ft | 17 kts | 269° |
| 2026-05-06 23:05 | 33.95008 | -118.40280 | 127 ft | 66 kts | 263° |
| 2026-05-06 23:05 | 33.94918 | -118.41157 | 126 ft | 142 kts | 263° |
| 2026-05-06 23:05 | 33.94772 | -118.42469 | 567 ft | 160 kts | 263° |
| 2026-05-06 23:05 | 33.94635 | -118.43797 | 1379 ft | 160 kts | 264° |
| 2026-05-06 23:06 | 33.94500 | -118.45203 | 2124 ft | 174 kts | 264° |
| 2026-05-06 23:06 | 33.94360 | -118.46675 | 2915 ft | 187 kts | 266° |
| 2026-05-06 23:06 | 33.94300 | -118.48305 | 3786 ft | 194 kts | 277° |
| 2026-05-06 23:06 | 33.94715 | -118.49796 | 4507 ft | 188 kts | 313° |
| 2026-05-06 23:07 | 33.95607 | -118.50950 | 4986 ft | 201 kts | 315° |
| 2026-05-06 23:07 | 33.96653 | -118.52308 | 5013 ft | 242 kts | 315° |
| 2026-05-06 23:07 | 33.97837 | -118.53865 | 4975 ft | 253 kts | 315° |
| 2026-05-06 23:07 | 33.98631 | -118.54921 | 4949 ft | 250 kts | 315° |
| 2026-05-06 23:08 | 34.00180 | -118.56990 | 4981 ft | 255 kts | 315° |
| 2026-05-06 23:08 | 34.01374 | -118.58595 | 4987 ft | 259 kts | 314° |
| 2026-05-06 23:08 | 34.02582 | -118.60225 | 5037 ft | 262 kts | 315° |
| 2026-05-06 23:08 | 34.03811 | -118.61886 | 5706 ft | 271 kts | 315° |
| 2026-05-06 23:09 | 34.04663 | -118.63039 | 6461 ft | 273 kts | 314° |
| 2026-05-06 23:09 | 34.05943 | -118.64771 | 7418 ft | 281 kts | 315° |
| 2026-05-06 23:09 | 34.07398 | -118.66304 | 8286 ft | 280 kts | 337° |
| 2026-05-06 23:09 | 34.09255 | -118.66775 | 9408 ft | 272 kts | 5° |
| 2026-05-06 23:10 | 34.11105 | -118.66448 | 10493 ft | 271 kts | 13° |
| 2026-05-06 23:10 | 34.12988 | -118.65993 | 11059 ft | 293 kts | 13° |
| 2026-05-06 23:10 | 34.15122 | -118.65464 | 11307 ft | 325 kts | 13° |
| 2026-05-06 23:10 | 34.17398 | -118.64910 | 11645 ft | 351 kts | 13° |
| 2026-05-06 23:11 | 34.19843 | -118.64325 | 12423 ft | 363 kts | 13° |
| 2026-05-06 23:11 | 34.22362 | -118.63810 | 13338 ft | 372 kts | 7° |
| 2026-05-06 23:11 | 34.24975 | -118.63700 | 14281 ft | 379 kts | 1° |
| 2026-05-06 23:11 | 34.27622 | -118.63935 | 15245 ft | 385 kts | 354° |
| 2026-05-06 23:12 | 34.30271 | -118.64505 | 16215 ft | 389 kts | 351° |
| 2026-05-06 23:12 | 34.32950 | -118.65147 | 17126 ft | 396 kts | 351° |
| 2026-05-06 23:12 | 34.35669 | -118.65801 | 18023 ft | 401 kts | 351° |
| 2026-05-06 23:12 | 34.38426 | -118.66445 | 18900 ft | 405 kts | 352° |
| 2026-05-06 23:13 | 34.41202 | -118.67084 | 19741 ft | 408 kts | 352° |
| 2026-05-06 23:13 | 34.44009 | -118.67710 | 20556 ft | 412 kts | 353° |
| 2026-05-06 23:13 | 34.46852 | -118.68276 | 21326 ft | 417 kts | 353° |
| 2026-05-06 23:13 | 34.49732 | -118.68822 | 22088 ft | 421 kts | 354° |
| 2026-05-06 23:14 | 34.52637 | -118.69372 | 22844 ft | 425 kts | 353° |
| 2026-05-06 23:14 | 34.55578 | -118.69935 | 23567 ft | 430 kts | 353° |
| 2026-05-06 23:14 | 34.58549 | -118.70511 | 24198 ft | 434 kts | 353° |
| 2026-05-06 23:14 | 34.61528 | -118.71095 | 24850 ft | 437 kts | 353° |
| 2026-05-06 23:15 | 34.64546 | -118.71687 | 25478 ft | 441 kts | 353° |
| 2026-05-06 23:15 | 34.67583 | -118.72295 | 26093 ft | 445 kts | 352° |
| 2026-05-06 23:15 | 34.70604 | -118.73217 | 26680 ft | 451 kts | 345° |
| 2026-05-06 23:15 | 34.73580 | -118.74517 | 27223 ft | 458 kts | 341° |
| 2026-05-06 23:16 | 34.76490 | -118.76137 | 27777 ft | 464 kts | 335° |
| 2026-05-06 23:16 | 34.79327 | -118.78052 | 28321 ft | 468 kts | 334° |
| 2026-05-06 23:16 | 34.82166 | -118.80026 | 28850 ft | 472 kts | 334° |
| 2026-05-06 23:16 | 34.85017 | -118.82022 | 29343 ft | 475 kts | 334° |
| 2026-05-06 23:17 | 34.87895 | -118.84033 | 29778 ft | 478 kts | 334° |
| 2026-05-06 23:17 | 34.90792 | -118.86045 | 30222 ft | 480 kts | 334° |
| 2026-05-06 23:17 | 34.93696 | -118.88055 | 30723 ft | 479 kts | 334° |
| 2026-05-06 23:17 | 34.96587 | -118.90053 | 31292 ft | 477 kts | 334° |
| 2026-05-06 23:18 | 34.99464 | -118.92038 | 31851 ft | 474 kts | 334° |
| 2026-05-06 23:18 | 35.02336 | -118.94019 | 32342 ft | 474 kts | 334° |
| 2026-05-06 23:18 | 35.05206 | -118.95998 | 32806 ft | 473 kts | 334° |
| 2026-05-06 23:18 | 35.08060 | -118.97968 | 33341 ft | 470 kts | 334° |
| 2026-05-06 23:19 | 35.10898 | -118.99930 | 33861 ft | 469 kts | 334° |
| 2026-05-06 23:19 | 35.13733 | -119.01892 | 34278 ft | 468 kts | 334° |
| 2026-05-06 23:19 | 35.16567 | -119.03855 | 34657 ft | 467 kts | 334° |
| 2026-05-06 23:19 | 35.19394 | -119.05815 | 35045 ft | 466 kts | 334° |
| 2026-05-06 23:20 | 35.22211 | -119.07769 | 35414 ft | 465 kts | 334° |
| 2026-05-06 23:20 | 35.25027 | -119.09724 | 35794 ft | 464 kts | 334° |
| 2026-05-06 23:20 | 35.27828 | -119.11671 | 36159 ft | 464 kts | 334° |
| 2026-05-06 23:20 | 35.30633 | -119.13622 | 36510 ft | 463 kts | 334° |
| 2026-05-06 23:21 | 35.33429 | -119.15568 | 36862 ft | 462 kts | 334° |
| 2026-05-06 23:21 | 35.36217 | -119.17510 | 37207 ft | 461 kts | 334° |
| 2026-05-06 23:21 | 35.39002 | -119.19451 | 37542 ft | 460 kts | 334° |
| 2026-05-06 23:21 | 35.41787 | -119.21376 | 37890 ft | 458 kts | 336° |
| 2026-05-06 23:22 | 35.44665 | -119.23031 | 38024 ft | 458 kts | 341° |
| 2026-05-06 23:22 | 35.50737 | -119.25385 | 38079 ft | 456 kts | 349° |
| 2026-05-06 23:23 | 35.56880 | -119.27179 | 38081 ft | 451 kts | 350° |
| 2026-05-06 23:23 | 35.62976 | -119.28951 | 38087 ft | 449 kts | 349° |
| 2026-05-06 23:24 | 35.69038 | -119.30744 | 38093 ft | 448 kts | 349° |
| 2026-05-06 23:24 | 35.75049 | -119.32543 | 38094 ft | 448 kts | 349° |
| 2026-05-06 23:25 | 35.81107 | -119.34363 | 38094 ft | 448 kts | 349° |
| 2026-05-06 23:25 | 35.87174 | -119.36190 | 38105 ft | 450 kts | 349° |
| 2026-05-06 23:26 | 35.93258 | -119.38024 | 38103 ft | 451 kts | 349° |
| 2026-05-06 23:26 | 35.99354 | -119.39864 | 38099 ft | 451 kts | 349° |
| 2026-05-06 23:27 | 36.05458 | -119.41710 | 38112 ft | 452 kts | 349° |
| 2026-05-06 23:27 | 36.11569 | -119.43561 | 38109 ft | 452 kts | 349° |
| 2026-05-06 23:28 | 36.17684 | -119.45415 | 38112 ft | 452 kts | 349° |
| 2026-05-06 23:28 | 36.23797 | -119.47273 | 38110 ft | 452 kts | 349° |
| 2026-05-06 23:29 | 36.29915 | -119.49134 | 38110 ft | 452 kts | 349° |
| 2026-05-06 23:29 | 36.36024 | -119.50996 | 38110 ft | 452 kts | 349° |
| 2026-05-06 23:30 | 36.42133 | -119.52862 | 38107 ft | 452 kts | 348° |
| 2026-05-06 23:30 | 36.48235 | -119.54728 | 38108 ft | 451 kts | 348° |
| 2026-05-06 23:31 | 36.54332 | -119.56595 | 38105 ft | 451 kts | 348° |
| 2026-05-06 23:31 | 36.60427 | -119.58464 | 38104 ft | 451 kts | 348° |
| 2026-05-06 23:32 | 36.66517 | -119.60336 | 38106 ft | 451 kts | 348° |
| 2026-05-06 23:32 | 36.72610 | -119.62211 | 38107 ft | 451 kts | 348° |
| 2026-05-06 23:33 | 36.78698 | -119.64088 | 38095 ft | 451 kts | 348° |
| 2026-05-06 23:33 | 36.84792 | -119.65970 | 38094 ft | 451 kts | 348° |
| 2026-05-06 23:34 | 36.90842 | -119.67841 | 38102 ft | 451 kts | 348° |
| 2026-05-06 23:34 | 36.96965 | -119.69738 | 38097 ft | 451 kts | 348° |
| 2026-05-06 23:35 | 37.03018 | -119.71616 | 38099 ft | 451 kts | 348° |
| 2026-05-06 23:35 | 37.09103 | -119.73507 | 38123 ft | 451 kts | 348° |
| 2026-05-06 23:36 | 37.15187 | -119.75401 | 38123 ft | 450 kts | 348° |
| 2026-05-06 23:36 | 37.21272 | -119.77299 | 38123 ft | 450 kts | 347° |
| 2026-05-06 23:37 | 37.27351 | -119.79198 | 38107 ft | 450 kts | 347° |
| 2026-05-06 23:37 | 37.33428 | -119.81099 | 38125 ft | 450 kts | 347° |
| 2026-05-06 23:38 | 37.39511 | -119.83005 | 38111 ft | 450 kts | 347° |
| 2026-05-06 23:38 | 37.45591 | -119.84915 | 38122 ft | 450 kts | 347° |
| 2026-05-06 23:39 | 37.51667 | -119.86826 | 38120 ft | 450 kts | 347° |
| 2026-05-06 23:39 | 37.57752 | -119.88743 | 38120 ft | 451 kts | 347° |
| 2026-05-06 23:40 | 37.63839 | -119.90663 | 38129 ft | 451 kts | 347° |
| 2026-05-06 23:40 | 37.69939 | -119.92590 | 38114 ft | 452 kts | 347° |
| 2026-05-06 23:41 | 37.76033 | -119.94521 | 38108 ft | 452 kts | 346° |
| 2026-05-06 23:41 | 37.82123 | -119.96452 | 38109 ft | 451 kts | 346° |
| 2026-05-06 23:42 | 37.88221 | -119.98389 | 38113 ft | 451 kts | 346° |
| 2026-05-06 23:42 | 37.94305 | -120.00326 | 38119 ft | 451 kts | 346° |
| 2026-05-06 23:43 | 38.00387 | -120.02264 | 38107 ft | 451 kts | 346° |
| 2026-05-06 23:43 | 38.06470 | -120.04207 | 38107 ft | 451 kts | 346° |
| 2026-05-06 23:44 | 38.12552 | -120.06153 | 38127 ft | 450 kts | 346° |
| 2026-05-06 23:44 | 38.18625 | -120.08098 | 38132 ft | 450 kts | 346° |
| 2026-05-06 23:45 | 38.24743 | -120.09774 | 38122 ft | 450 kts | 353° |
| 2026-05-06 23:45 | 38.30977 | -120.10376 | 38138 ft | 449 kts | 356° |
| 2026-05-06 23:46 | 38.37213 | -120.10891 | 38148 ft | 449 kts | 355° |
| 2026-05-06 23:46 | 38.43454 | -120.11434 | 38143 ft | 450 kts | 355° |
| 2026-05-06 23:47 | 38.49702 | -120.11999 | 38151 ft | 450 kts | 355° |
| 2026-05-06 23:47 | 38.55961 | -120.12572 | 38170 ft | 451 kts | 355° |
| 2026-05-06 23:48 | 38.62230 | -120.13146 | 38175 ft | 452 kts | 355° |
| 2026-05-06 23:48 | 38.68474 | -120.13720 | 38184 ft | 453 kts | 355° |
| 2026-05-06 23:49 | 38.74760 | -120.14297 | 38171 ft | 453 kts | 355° |
| 2026-05-06 23:49 | 38.81054 | -120.14877 | 38171 ft | 453 kts | 355° |
| 2026-05-06 23:50 | 38.87340 | -120.15457 | 38170 ft | 452 kts | 355° |
| 2026-05-06 23:50 | 38.96758 | -120.16325 | 38175 ft | 452 kts | 354° |
| 2026-05-06 23:51 | 39.03028 | -120.16906 | 38191 ft | 452 kts | 354° |
| 2026-05-06 23:51 | 39.09299 | -120.17488 | 38195 ft | 451 kts | 354° |
| 2026-05-06 23:52 | 39.15558 | -120.18069 | 38229 ft | 451 kts | 354° |
| 2026-05-06 23:52 | 39.21821 | -120.18652 | 38252 ft | 451 kts | 354° |
| 2026-05-06 23:53 | 39.28081 | -120.19236 | 38248 ft | 452 kts | 354° |
| 2026-05-06 23:53 | 39.33296 | -120.19724 | 38261 ft | 452 kts | 354° |
| 2026-05-06 23:54 | 39.39566 | -120.20311 | 38103 ft | 452 kts | 354° |
| 2026-05-06 23:54 | 39.45833 | -120.20898 | 38100 ft | 451 kts | 354° |
| 2026-05-06 23:55 | 39.52094 | -120.21485 | 38099 ft | 451 kts | 354° |
| 2026-05-06 23:55 | 39.58362 | -120.22075 | 38095 ft | 451 kts | 354° |
| 2026-05-06 23:56 | 39.64628 | -120.22668 | 38095 ft | 451 kts | 354° |
| 2026-05-06 23:56 | 39.70894 | -120.23260 | 38088 ft | 452 kts | 354° |
| 2026-05-06 23:57 | 39.77163 | -120.23852 | 38080 ft | 452 kts | 354° |
| 2026-05-06 23:57 | 39.83433 | -120.24445 | 38064 ft | 452 kts | 354° |
| 2026-05-06 23:58 | 39.89705 | -120.25040 | 38069 ft | 452 kts | 353° |
| 2026-05-06 23:58 | 39.95935 | -120.25631 | 38059 ft | 452 kts | 353° |
| 2026-05-06 23:59 | 40.02199 | -120.26229 | 38058 ft | 452 kts | 353° |
| 2026-05-06 23:59 | 40.08471 | -120.26830 | 38050 ft | 452 kts | 353° |
| 2026-05-07 00:00 | 40.14741 | -120.27429 | 38068 ft | 452 kts | 353° |
| 2026-05-07 00:00 | 40.21019 | -120.28030 | 38073 ft | 452 kts | 353° |
| 2026-05-07 00:01 | 40.27284 | -120.28631 | 38092 ft | 452 kts | 353° |
| 2026-05-07 00:01 | 40.33565 | -120.29235 | 38100 ft | 452 kts | 353° |
| 2026-05-07 00:02 | 40.39837 | -120.29839 | 38097 ft | 452 kts | 353° |
| 2026-05-07 00:02 | 40.46108 | -120.30444 | 38104 ft | 452 kts | 353° |
| 2026-05-07 00:03 | 40.52387 | -120.31052 | 38089 ft | 452 kts | 353° |
| 2026-05-07 00:03 | 40.58663 | -120.31659 | 38083 ft | 452 kts | 353° |
| 2026-05-07 00:04 | 40.64935 | -120.32261 | 38073 ft | 452 kts | 353° |
| 2026-05-07 00:04 | 40.71208 | -120.32853 | 38068 ft | 452 kts | 353° |
| 2026-05-07 00:05 | 40.77476 | -120.33456 | 38069 ft | 452 kts | 353° |
| 2026-05-07 00:05 | 40.83739 | -120.34080 | 38093 ft | 451 kts | 352° |
| 2026-05-07 00:06 | 40.90000 | -120.34739 | 38093 ft | 451 kts | 352° |
| 2026-05-07 00:06 | 40.96252 | -120.35463 | 38091 ft | 451 kts | 351° |
| 2026-05-07 00:07 | 41.02498 | -120.36255 | 38082 ft | 451 kts | 351° |
| 2026-05-07 00:07 | 41.08741 | -120.37139 | 38096 ft | 451 kts | 350° |
| 2026-05-07 00:08 | 41.14969 | -120.38109 | 38089 ft | 450 kts | 349° |
| 2026-05-07 00:08 | 41.21177 | -120.39156 | 38096 ft | 450 kts | 349° |
| 2026-05-07 00:09 | 41.27340 | -120.40245 | 38102 ft | 449 kts | 349° |
| 2026-05-07 00:09 | 41.33577 | -120.41359 | 38107 ft | 449 kts | 349° |
| 2026-05-07 00:10 | 41.39777 | -120.42440 | 38111 ft | 449 kts | 349° |
| 2026-05-07 00:10 | 41.45984 | -120.43462 | 38111 ft | 449 kts | 349° |
| 2026-05-07 00:11 | 41.52192 | -120.44406 | 38066 ft | 449 kts | 350° |
| 2026-05-07 00:11 | 41.58401 | -120.45269 | 38064 ft | 449 kts | 351° |
| 2026-05-07 00:12 | 41.64570 | -120.46095 | 38063 ft | 448 kts | 351° |
| 2026-05-07 00:12 | 41.70809 | -120.46975 | 38058 ft | 448 kts | 350° |
| 2026-05-07 00:13 | 41.77000 | -120.47960 | 38059 ft | 448 kts | 349° |
| 2026-05-07 00:13 | 41.83135 | -120.49071 | 38060 ft | 448 kts | 348° |
| 2026-05-07 00:14 | 41.89286 | -120.50347 | 38093 ft | 447 kts | 347° |
| 2026-05-07 00:14 | 41.95392 | -120.51808 | 38122 ft | 447 kts | 347° |
| 2026-05-07 00:15 | 42.01435 | -120.53106 | 38139 ft | 449 kts | 354° |
| 2026-05-07 00:16 | 42.05090 | -120.53159 | 38159 ft | 451 kts | 358° |
| 2026-05-07 00:16 | 42.11364 | -120.52732 | 38164 ft | 451 kts | 0° |
| 2026-05-07 00:17 | 42.17635 | -120.52288 | 38165 ft | 451 kts | 359° |
| 2026-05-07 00:17 | 42.23895 | -120.51949 | 38107 ft | 450 kts | 359° |
| 2026-05-07 00:18 | 42.30143 | -120.51644 | 38110 ft | 449 kts | 359° |
| 2026-05-07 00:18 | 42.36379 | -120.51340 | 38097 ft | 448 kts | 359° |
| 2026-05-07 00:19 | 42.42596 | -120.51033 | 38095 ft | 447 kts | 359° |
| 2026-05-07 00:19 | 42.48798 | -120.50925 | 38078 ft | 442 kts | 350° |
| 2026-05-07 00:20 | 42.51756 | -120.51938 | 38071 ft | 437 kts | 335° |
| 2026-05-07 00:20 | 42.54498 | -120.53679 | 38098 ft | 436 kts | 334° |
| 2026-05-07 00:20 | 42.60016 | -120.57144 | 38091 ft | 439 kts | 335° |
| 2026-05-07 00:21 | 42.65603 | -120.60560 | 38080 ft | 441 kts | 335° |
| 2026-05-07 00:21 | 42.71211 | -120.63968 | 38075 ft | 442 kts | 335° |
| 2026-05-07 00:22 | 42.76833 | -120.67382 | 38059 ft | 442 kts | 335° |
| 2026-05-07 00:22 | 42.82442 | -120.70798 | 38061 ft | 441 kts | 335° |
| 2026-05-07 00:23 | 42.88044 | -120.74219 | 38059 ft | 440 kts | 335° |
| 2026-05-07 00:23 | 42.93627 | -120.77636 | 38058 ft | 439 kts | 335° |
| 2026-05-07 00:24 | 42.99197 | -120.81052 | 38052 ft | 438 kts | 335° |
| 2026-05-07 00:24 | 43.04756 | -120.84468 | 38053 ft | 438 kts | 335° |
| 2026-05-07 00:25 | 43.10311 | -120.87887 | 38045 ft | 438 kts | 335° |
| 2026-05-07 00:25 | 43.15863 | -120.91312 | 38052 ft | 437 kts | 335° |
| 2026-05-07 00:26 | 43.21409 | -120.94740 | 38055 ft | 437 kts | 335° |
| 2026-05-07 00:26 | 43.26946 | -120.98170 | 38061 ft | 437 kts | 335° |
| 2026-05-07 00:27 | 43.32495 | -121.01613 | 38059 ft | 437 kts | 335° |
| 2026-05-07 00:27 | 43.38037 | -121.05059 | 38055 ft | 437 kts | 335° |
| 2026-05-07 00:28 | 43.43576 | -121.08511 | 38057 ft | 437 kts | 335° |
| 2026-05-07 00:28 | 43.49109 | -121.11966 | 38071 ft | 436 kts | 335° |
| 2026-05-07 00:29 | 43.54598 | -121.15400 | 38074 ft | 436 kts | 335° |
| 2026-05-07 00:30 | 43.65645 | -121.22332 | 38074 ft | 436 kts | 335° |
| 2026-05-07 00:30 | 43.71170 | -121.25810 | 38071 ft | 437 kts | 335° |
| 2026-05-07 00:31 | 43.76695 | -121.29296 | 38079 ft | 437 kts | 335° |
| 2026-05-07 00:31 | 43.82231 | -121.32794 | 38080 ft | 437 kts | 335° |
| 2026-05-07 00:32 | 43.87763 | -121.36294 | 38089 ft | 437 kts | 335° |
| 2026-05-07 00:32 | 43.93298 | -121.39805 | 38085 ft | 438 kts | 336° |
| 2026-05-07 00:33 | 43.98833 | -121.43325 | 38091 ft | 437 kts | 336° |
| 2026-05-07 00:33 | 44.04362 | -121.46846 | 38112 ft | 437 kts | 335° |
| 2026-05-07 00:34 | 44.09883 | -121.50372 | 38101 ft | 436 kts | 335° |
| 2026-05-07 00:34 | 44.15392 | -121.53896 | 38097 ft | 435 kts | 335° |
| 2026-05-07 00:35 | 44.20888 | -121.57420 | 38089 ft | 435 kts | 335° |
| 2026-05-07 00:35 | 44.26379 | -121.60947 | 38091 ft | 434 kts | 335° |
| 2026-05-07 00:36 | 44.31822 | -121.64450 | 38099 ft | 434 kts | 335° |
| 2026-05-07 00:36 | 44.37299 | -121.67983 | 38100 ft | 433 kts | 335° |
| 2026-05-07 00:37 | 44.42769 | -121.71519 | 38100 ft | 433 kts | 335° |
| 2026-05-07 00:37 | 44.48246 | -121.75066 | 38103 ft | 433 kts | 335° |
| 2026-05-07 00:38 | 44.53710 | -121.78613 | 38104 ft | 433 kts | 335° |
| 2026-05-07 00:38 | 44.59170 | -121.82166 | 38116 ft | 433 kts | 335° |
| 2026-05-07 00:39 | 44.64628 | -121.85722 | 38130 ft | 433 kts | 334° |
| 2026-05-07 00:39 | 44.70087 | -121.89286 | 38147 ft | 432 kts | 334° |
| 2026-05-07 00:40 | 44.74624 | -121.92253 | 38131 ft | 433 kts | 334° |
| 2026-05-07 00:40 | 44.80079 | -121.95833 | 38128 ft | 433 kts | 334° |
| 2026-05-07 00:41 | 44.85534 | -121.99417 | 38148 ft | 432 kts | 334° |
| 2026-05-07 00:41 | 44.90965 | -122.02995 | 38149 ft | 430 kts | 334° |
| 2026-05-07 00:42 | 44.96367 | -122.06559 | 38153 ft | 428 kts | 334° |
| 2026-05-07 00:42 | 45.01757 | -122.10120 | 38161 ft | 427 kts | 333° |
| 2026-05-07 00:43 | 45.07139 | -122.13686 | 38173 ft | 427 kts | 333° |
| 2026-05-07 00:43 | 45.12522 | -122.17259 | 38160 ft | 428 kts | 334° |
| 2026-05-07 00:44 | 45.17908 | -122.20847 | 38168 ft | 428 kts | 333° |
| 2026-05-07 00:44 | 45.23301 | -122.24437 | 38160 ft | 429 kts | 333° |
| 2026-05-07 00:45 | 45.28701 | -122.28050 | 38172 ft | 430 kts | 333° |
| 2026-05-07 00:45 | 45.34120 | -122.31677 | 38178 ft | 431 kts | 333° |
| 2026-05-07 00:46 | 45.39545 | -122.35316 | 38169 ft | 432 kts | 333° |
| 2026-05-07 00:46 | 45.44943 | -122.38945 | 38171 ft | 433 kts | 333° |
| 2026-05-07 00:47 | 45.50388 | -122.42615 | 38181 ft | 433 kts | 333° |
| 2026-05-07 00:47 | 45.55841 | -122.46297 | 38170 ft | 434 kts | 333° |
| 2026-05-07 00:48 | 45.61292 | -122.49986 | 38176 ft | 434 kts | 333° |
| 2026-05-07 00:48 | 45.66743 | -122.53685 | 38190 ft | 434 kts | 333° |
| 2026-05-07 00:49 | 45.72196 | -122.57391 | 38001 ft | 436 kts | 333° |
| 2026-05-07 00:49 | 45.75004 | -122.59183 | 37194 ft | 445 kts | 339° |
| 2026-05-07 00:49 | 45.77999 | -122.60197 | 36864 ft | 434 kts | 347° |
| 2026-05-07 00:50 | 45.80947 | -122.60926 | 36711 ft | 431 kts | 347° |
| 2026-05-07 00:50 | 45.83917 | -122.61655 | 36199 ft | 437 kts | 347° |
| 2026-05-07 00:50 | 45.86937 | -122.62386 | 35659 ft | 442 kts | 347° |
| 2026-05-07 00:50 | 45.89984 | -122.63114 | 35160 ft | 446 kts | 347° |
| 2026-05-07 00:51 | 45.93061 | -122.63845 | 34735 ft | 449 kts | 347° |
| 2026-05-07 00:51 | 45.96142 | -122.64576 | 34319 ft | 450 kts | 347° |
| 2026-05-07 00:51 | 45.99243 | -122.65312 | 33884 ft | 451 kts | 347° |
| 2026-05-07 00:51 | 46.02344 | -122.66052 | 33392 ft | 453 kts | 347° |
| 2026-05-07 00:52 | 46.05465 | -122.66797 | 32574 ft | 457 kts | 347° |
| 2026-05-07 00:52 | 46.08610 | -122.67550 | 31591 ft | 459 kts | 347° |
| 2026-05-07 00:52 | 46.11766 | -122.68264 | 30720 ft | 459 kts | 348° |
| 2026-05-07 00:52 | 46.14917 | -122.68888 | 29934 ft | 455 kts | 348° |
| 2026-05-07 00:53 | 46.18046 | -122.69480 | 29135 ft | 452 kts | 348° |
| 2026-05-07 00:53 | 46.21151 | -122.70071 | 28407 ft | 448 kts | 348° |
| 2026-05-07 00:53 | 46.24183 | -122.70660 | 27701 ft | 444 kts | 348° |
| 2026-05-07 00:53 | 46.27229 | -122.71262 | 26998 ft | 440 kts | 348° |
| 2026-05-07 00:54 | 46.30250 | -122.71864 | 26319 ft | 437 kts | 348° |
| 2026-05-07 00:54 | 46.33256 | -122.72410 | 25648 ft | 435 kts | 350° |
| 2026-05-07 00:54 | 46.36283 | -122.72646 | 24991 ft | 435 kts | 354° |
| 2026-05-07 00:54 | 46.39300 | -122.72708 | 24319 ft | 433 kts | 355° |
| 2026-05-07 00:55 | 46.42311 | -122.72727 | 23623 ft | 431 kts | 354° |
| 2026-05-07 00:55 | 46.45299 | -122.72760 | 22885 ft | 428 kts | 354° |
| 2026-05-07 00:55 | 46.48267 | -122.72820 | 22208 ft | 424 kts | 354° |
| 2026-05-07 00:55 | 46.51196 | -122.72904 | 21580 ft | 420 kts | 353° |
| 2026-05-07 00:56 | 46.54106 | -122.73002 | 20947 ft | 416 kts | 353° |
| 2026-05-07 00:56 | 46.56984 | -122.73106 | 20316 ft | 412 kts | 353° |
| 2026-05-07 00:56 | 46.59834 | -122.73212 | 19709 ft | 409 kts | 353° |
| 2026-05-07 00:56 | 46.62671 | -122.73318 | 19093 ft | 407 kts | 353° |
| 2026-05-07 00:57 | 46.65495 | -122.73422 | 18485 ft | 405 kts | 353° |
| 2026-05-07 00:57 | 46.68284 | -122.73523 | 18110 ft | 395 kts | 353° |
| 2026-05-07 00:57 | 46.70990 | -122.73615 | 17908 ft | 382 kts | 352° |
| 2026-05-07 00:57 | 46.73608 | -122.73708 | 17723 ft | 370 kts | 352° |
| 2026-05-07 00:58 | 46.76139 | -122.73785 | 17460 ft | 358 kts | 355° |
| 2026-05-07 00:58 | 46.78581 | -122.73141 | 17197 ft | 361 kts | 13° |
| 2026-05-07 00:58 | 46.80795 | -122.71342 | 16758 ft | 371 kts | 32° |
| 2026-05-07 00:58 | 46.82769 | -122.68929 | 16363 ft | 369 kts | 34° |
| 2026-05-07 00:59 | 46.86724 | -122.64196 | 15499 ft | 365 kts | 32° |
| 2026-05-07 00:59 | 46.88727 | -122.61933 | 15087 ft | 363 kts | 32° |
| 2026-05-07 00:59 | 46.90705 | -122.59695 | 14871 ft | 355 kts | 32° |
| 2026-05-07 01:00 | 46.92624 | -122.57510 | 14704 ft | 345 kts | 31° |
| 2026-05-07 01:00 | 46.94582 | -122.55704 | 14421 ft | 321 kts | 13° |
| 2026-05-07 01:00 | 46.96674 | -122.54819 | 14109 ft | 310 kts | 7° |
| 2026-05-07 01:00 | 46.98755 | -122.53986 | 13744 ft | 311 kts | 9° |
| 2026-05-07 01:01 | 47.00831 | -122.53114 | 13365 ft | 310 kts | 9° |
| 2026-05-07 01:01 | 47.02874 | -122.52234 | 12998 ft | 309 kts | 10° |
| 2026-05-07 01:01 | 47.04960 | -122.51325 | 12628 ft | 308 kts | 10° |
| 2026-05-07 01:01 | 47.07009 | -122.50429 | 12284 ft | 307 kts | 10° |
| 2026-05-07 01:02 | 47.09060 | -122.49672 | 11913 ft | 301 kts | 3° |
| 2026-05-07 01:02 | 47.11124 | -122.49306 | 11588 ft | 297 kts | 359° |
| 2026-05-07 01:02 | 47.13152 | -122.49014 | 11246 ft | 297 kts | 0° |
| 2026-05-07 01:02 | 47.15201 | -122.48683 | 10901 ft | 296 kts | 1° |
| 2026-05-07 01:03 | 47.17245 | -122.48326 | 10562 ft | 295 kts | 1° |
| 2026-05-07 01:03 | 47.19276 | -122.47962 | 10225 ft | 294 kts | 1° |
| 2026-05-07 01:03 | 47.21285 | -122.47642 | 10076 ft | 285 kts | 0° |
| 2026-05-07 01:03 | 47.23241 | -122.47347 | 9809 ft | 281 kts | 0° |
| 2026-05-07 01:04 | 47.25181 | -122.47059 | 9496 ft | 280 kts | 1° |
| 2026-05-07 01:04 | 47.27111 | -122.46770 | 9172 ft | 278 kts | 1° |
| 2026-05-07 01:04 | 47.29030 | -122.46479 | 8860 ft | 277 kts | 1° |
| 2026-05-07 01:04 | 47.30940 | -122.46188 | 8540 ft | 275 kts | 1° |
| 2026-05-07 01:05 | 47.32822 | -122.45899 | 8379 ft | 268 kts | 1° |
| 2026-05-07 01:05 | 47.34649 | -122.45616 | 8243 ft | 259 kts | 1° |
| 2026-05-07 01:05 | 47.36424 | -122.45443 | 7983 ft | 254 kts | 356° |
| 2026-05-07 01:05 | 47.38186 | -122.45457 | 7719 ft | 252 kts | 355° |
| 2026-05-07 01:06 | 47.39938 | -122.45486 | 7437 ft | 251 kts | 355° |
| 2026-05-07 01:06 | 47.41679 | -122.45510 | 7165 ft | 250 kts | 356° |
| 2026-05-07 01:06 | 47.43417 | -122.45524 | 6874 ft | 249 kts | 356° |
| 2026-05-07 01:06 | 47.45148 | -122.45531 | 6595 ft | 249 kts | 357° |
| 2026-05-07 01:07 | 47.46303 | -122.45533 | 6394 ft | 248 kts | 356° |
| 2026-05-07 01:08 | 47.47805 | -122.45540 | 6203 ft | 243 kts | 358° |
| 2026-05-07 01:08 | 47.49463 | -122.45529 | 6107 ft | 233 kts | 357° |
| 2026-05-07 01:08 | 47.51062 | -122.45533 | 6036 ft | 227 kts | 358° |
| 2026-05-07 01:08 | 47.52627 | -122.45591 | 6005 ft | 222 kts | 356° |
| 2026-05-07 01:09 | 47.53063 | -122.45620 | 6002 ft | 221 kts | 355° |
| 2026-05-07 01:09 | 47.54309 | -122.45709 | 5981 ft | 221 kts | 356° |
| 2026-05-07 01:09 | 47.55848 | -122.45829 | 6002 ft | 223 kts | 354° |
| 2026-05-07 01:09 | 47.57410 | -122.45952 | 5995 ft | 226 kts | 355° |
| 2026-05-07 01:10 | 47.58983 | -122.46066 | 5995 ft | 227 kts | 355° |
| 2026-05-07 01:10 | 47.60559 | -122.46178 | 5977 ft | 227 kts | 356° |
| 2026-05-07 01:10 | 47.62137 | -122.46274 | 5992 ft | 226 kts | 354° |
| 2026-05-07 01:10 | 47.63706 | -122.46405 | 5980 ft | 226 kts | 355° |
| 2026-05-07 01:11 | 47.65271 | -122.46506 | 5993 ft | 224 kts | 355° |
| 2026-05-07 01:11 | 47.66829 | -122.46634 | 5980 ft | 224 kts | 355° |
| 2026-05-07 01:11 | 47.68383 | -122.46749 | 5996 ft | 223 kts | 354° |
| 2026-05-07 01:11 | 47.69930 | -122.46893 | 5990 ft | 223 kts | 355° |
| 2026-05-07 01:12 | 47.71486 | -122.46990 | 6000 ft | 224 kts | 355° |
| 2026-05-07 01:12 | 47.73002 | -122.47041 | 5966 ft | 221 kts | 8° |
| 2026-05-07 01:12 | 47.74361 | -122.45948 | 6008 ft | 229 kts | 48° |
| 2026-05-07 01:12 | 47.75258 | -122.43946 | 6005 ft | 238 kts | 63° |
| 2026-05-07 01:13 | 47.75559 | -122.41518 | 5988 ft | 244 kts | 97° |
| 2026-05-07 01:13 | 47.74947 | -122.39203 | 5813 ft | 246 kts | 130° |
| 2026-05-07 01:13 | 47.73586 | -122.37753 | 5524 ft | 237 kts | 157° |
| 2026-05-07 01:13 | 47.72097 | -122.36738 | 5273 ft | 235 kts | 155° |
| 2026-05-07 01:14 | 47.70617 | -122.35701 | 5002 ft | 235 kts | 154° |
| 2026-05-07 01:14 | 47.69165 | -122.34679 | 4726 ft | 233 kts | 155° |
| 2026-05-07 01:14 | 47.67708 | -122.33650 | 4457 ft | 231 kts | 155° |
| 2026-05-07 01:14 | 47.66273 | -122.32635 | 4217 ft | 229 kts | 155° |
| 2026-05-07 01:15 | 47.64808 | -122.31825 | 3926 ft | 222 kts | 173° |
| 2026-05-07 01:15 | 47.63286 | -122.31677 | 3659 ft | 218 kts | 180° |
| 2026-05-07 01:15 | 47.61780 | -122.31651 | 3432 ft | 214 kts | 181° |
| 2026-05-07 01:15 | 47.60296 | -122.31660 | 3149 ft | 212 kts | 181° |
| 2026-05-07 01:16 | 47.58832 | -122.31674 | 2875 ft | 210 kts | 182° |
| 2026-05-07 01:16 | 47.57375 | -122.31690 | 2600 ft | 208 kts | 181° |
| 2026-05-07 01:16 | 47.55947 | -122.31702 | 2374 ft | 199 kts | 181° |
| 2026-05-07 01:16 | 47.54625 | -122.31712 | 2101 ft | 183 kts | 181° |
| 2026-05-07 01:17 | 47.53401 | -122.31723 | 1768 ft | 166 kts | 183° |
| 2026-05-07 01:17 | 47.52233 | -122.31744 | 1619 ft | 175 kts | 182° |
| 2026-05-07 01:17 | 47.51020 | -122.31768 | 1256 ft | 162 kts | 182° |
| 2026-05-07 01:17 | 47.49931 | -122.31743 | 1120 ft | 151 kts | 182° |
| 2026-05-07 01:18 | 47.48896 | -122.31762 | 926 ft | 146 kts | 182° |
| 2026-05-07 01:18 | 47.47894 | -122.31768 | 747 ft | 141 kts | 184° |
| 2026-05-07 01:18 | 47.46909 | -122.31782 | 576 ft | 141 kts | 182° |
| 2026-05-07 01:18 | 47.45928 | -122.31783 | 403 ft | 138 kts | 183° |
| 2026-05-07 01:19 | 47.45084 | -122.31795 | 398 ft | 98 kts | 180° |
| 2026-05-07 01:19 | 47.44648 | -122.31782 | 396 ft | 35 kts | 155° |
| 2026-05-07 01:19 | 47.44484 | -122.31655 | 395 ft | 20 kts | 150° |
| 2026-05-07 01:19 | 47.44378 | -122.31566 | 395 ft | 16 kts | 150° |
| 2026-05-07 01:20 | 47.44289 | -122.31476 | 397 ft | 16 kts | 137° |
| 2026-05-07 01:20 | 47.44235 | -122.31340 | 397 ft | 16 kts | 109° |
| 2026-05-07 01:20 | 47.44198 | -122.31189 | 396 ft | 16 kts | 117° |
| 2026-05-07 01:20 | 47.44125 | -122.31073 | 398 ft | 16 kts | 145° |
| 2026-05-07 01:21 | 47.44032 | -122.30990 | 396 ft | 16 kts | 150° |
| 2026-05-07 01:21 | 47.43942 | -122.30906 | 397 ft | 15 kts | 136° |
| 2026-05-07 01:21 | 47.43904 | -122.30778 | 396 ft | 12 kts | 95° |
| 2026-05-07 01:21 | 47.43919 | -122.30663 | 395 ft | 12 kts | 50° |
| 2026-05-07 01:22 | 47.43987 | -122.30597 | 394 ft | 12 kts | 56° |
| 2026-05-07 01:22 | 47.43996 | -122.30474 | 396 ft | 12 kts | 96° |
| 2026-05-07 01:22 | 47.43996 | -122.30350 | 395 ft | 11 kts | 80° |
| 2026-05-07 01:22 | 47.43963 | -122.30271 | 397 ft | 8 kts | 148° |
| 2026-05-07 01:23 | 47.43946 | -122.30256 | 396 ft | 0 kts | 150° |